Aérodrome :
LOGIN :

S'inscrire | Disclaimer

   EN    FR    IT 

 










Légende :    VFR   VFR Marginal   IFR   IFR Intensif   IFR Très Intensif
Visi : 
Plafond : 
>= 8 km
>= 3000ft
5 à 8 km
1000 à 3000 ft
1500m à 5 km
500 à 1000 ft
800 à 1500m
200 à 500 ft
< 800m
< 200 ft
Symboles :   Orages  Brouillard  Fortes neiges  Fortes précipitations  Vent > 20 kt
SIGMETs :   Divers  Orages  Givrage  Turbulence  Onde Orograph.  Cendres Volcan.







- Altitude de l'aérodrome : 187 ft


ETNW - Wunstorf AB

DERNIER METAR :
  • 240420Z VRB03KT 9999 VCTS SCT040CB BKN120 15/13 Q1012 RERA BLU

METARs EXPIRÉS :
  • 240405Z 13004KT 9999 VCTS SCT040CB BKN120 15/12 Q1012 RERA BLU
  • 240350Z 17003KT 5000 TSRA BKN040CB BKN120 15/12 Q1012 WHT
  • 240338Z VRB02KT 9999 -TSRA SCT050CB BKN060 16/11 Q1012 BLU
  • 240330Z 14004KT 9999 VCTS FEW050CB SCT060 BKN110 15/11 Q1012 BLU
  • 240220Z 13006KT 9999 SCT060 BKN220 16/11 Q1012 BLU+

TAF TAF ETNW
Valide du 24 à 05h jusqu'au 25 à 05h UTC


240400Z 2405/2505 18010KT 9999 NSW SCT050 SCT250
TEMPO 2405/2410 23010G22KT 4000 SHRA BKN010 BKN040CB
PROB30 2405/2410 25015G30KT 4000 TSRA BKN007 BKN040CB
BECMG 2409/2411 26010G22KT 9999 NSW SCT025 SCT240 BY ETGL
Pas de NOTAMs connus pour ce terrain.
4 SIGMETs publiés pour la FIR Bremen (EDWW) :
 
Orages noyés dans la masse
EDWW SIGMET 6 VALID 240430/240730 EDZH
EDWW BREMEN FIR EMBD TS OBS WI N5400 E00814 - N5219 E01032 - N5210 E00922 - N5356 E00731 - N5400 E00814 TOP FL320 MOV E NC=
Orages noyés dans la masse
EDWW SIGMET 5 VALID 240312/240430 EDZH
EDWW BREMEN FIR EMBD TS FCST W OF LINE N5120 E01010 - N5505 E01010 TOP FL320 MOV E NC=
Annulation du SIGMET 3 
EDWW SIGMET 4 VALID 240310/240430 EDZH
EDWW BREMEN FIR CNL SIGMET 3 240300/240430=
SIGMET 3  ANNULÉ :
Orages noyés dans la masse
EDWW SIGMET 3 VALID 240300/240430 EDZH
EDWW BREMEN FIR EMBD TS FCST W OF LINE N5120 E01010 - N5505 E01010 ABV FL320 MOV E NC=



MET'MAP, la Météo Aéronautique d'un coup d'oeil ! - Copyright ORBIFLY Décembre 2007 - Disclaimer

ORBIFLY MET'MAP TEAM :

Programmation & Développement : Alexandra Zaïnal
Conception & Développement : Baudouin d'Aumeries
Co-Programmation & Développement : Marc-Olivier Méhu
Soutien technique & logistique : Manuel Goepfert

Contact : metmap@orbifly.com




SOURCES & CREDITS :

   NOAA